Time;durP1;ratioP1;P1;durP2;ratioP2;P2;SDS_P1;SDS_P2;PMS_P1;PMS_P2;Temp;Humidity;BMP_temperature;BMP_pressure;BME280_temperature;BME280_humidity;BME280_pressure;Samples;Min_cycle;Max_cycle;Signal;HPM_P1;HPM_P2
2023/09/05 00:00:16;;;;;;;13.18;6.57;;;;;;;15.61;100.00;101458.19;5031976;28;20045;-75
2023/09/05 00:02:44;;;;;;;9.10;6.05;;;;;;;15.73;100.00;101460.19;5031445;28;20029;-75
2023/09/05 00:05:12;;;;;;;;;;;;;;;15.74;100.00;101459.09;5033200;28;20060;-75
2023/09/05 00:07:39;;;;;;;8.48;5.90;;;;;;;15.66;100.00;101468.50;5033789;28;19967;-75
2023/09/05 00:10:13;;;;;;;7.13;5.22;;;;;;;15.49;100.00;101466.38;5035280;28;20264;-75
2023/09/05 00:12:43;;;;;;;7.63;5.60;;;;;;;15.30;100.00;101461.97;5032147;28;20107;-75
2023/09/05 00:15:14;;;;;;;11.45;6.05;;;;;;;15.12;100.00;101469.13;5031417;28;20068;-75
2023/09/05 00:17:41;;;;;;;8.25;5.70;;;;;;;14.96;100.00;101459.56;5031576;28;20037;-76
2023/09/05 00:20:08;;;;;;;11.20;6.53;;;;;;;14.82;100.00;101456.94;5036106;28;20037;-75
2023/09/05 00:22:35;;;;;;;9.27;5.88;;;;;;;14.64;100.00;101449.47;5035847;28;20329;-75
2023/09/05 00:25:02;;;;;;;8.55;6.03;;;;;;;14.55;100.00;101447.22;5031663;28;20048;-75
2023/09/05 00:27:28;;;;;;;10.00;6.60;;;;;;;14.47;100.00;101440.13;5036349;28;20033;-75
2023/09/05 00:29:57;;;;;;;9.95;6.80;;;;;;;14.39;100.00;101428.34;5031435;28;20108;-75
2023/09/05 00:32:23;;;;;;;;;;;;;;;14.30;100.00;101426.09;5039516;28;20057;-75
2023/09/05 00:34:49;;;;;;;11.32;6.90;;;;;;;14.16;100.00;101426.19;5031032;28;20027;-75
2023/09/05 00:37:22;;;;;;;9.88;7.00;;;;;;;14.02;100.00;101433.66;5030332;28;20034;-76
2023/09/05 00:39:48;;;;;;;9.60;6.78;;;;;;;13.91;100.00;101435.22;5019775;28;20087;-75
2023/09/05 00:42:15;;;;;;;9.82;7.65;;;;;;;13.84;100.00;101431.69;5031236;28;20034;-75
2023/09/05 00:44:44;;;;;;;13.63;8.02;;;;;;;13.77;100.00;101420.72;5031365;28;20073;-75
2023/09/05 00:47:11;;;;;;;9.45;7.50;;;;;;;13.75;100.00;101422.00;5031329;28;20040;-75
2023/09/05 00:49:46;;;;;;;11.93;7.57;;;;;;;13.74;100.00;101414.84;5013716;28;20033;-75
2023/09/05 00:52:14;;;;;;;12.02;8.13;;;;;;;13.71;100.00;101401.56;5034678;28;20124;-75
2023/09/05 00:54:42;;;;;;;12.23;8.10;;;;;;;13.70;100.00;101391.66;5034683;28;20060;-75
2023/09/05 00:57:11;;;;;;;13.98;8.57;;;;;;;13.70;100.00;101381.56;5035277;28;20539;-75
2023/09/05 00:59:38;;;;;;;11.65;8.38;;;;;;;13.70;100.00;101378.81;5038492;28;20132;-75
2023/09/05 01:02:04;;;;;;;11.93;8.63;;;;;;;13.70;100.00;101372.47;5034934;28;20120;-75
2023/09/05 01:04:33;;;;;;;12.27;9.27;;;;;;;13.71;100.00;101369.53;5029091;28;20032;-74
2023/09/05 01:07:54;;;;;;;14.05;9.02;;;;;;;13.69;100.00;101359.81;5035336;28;20034;-75
2023/09/05 01:10:31;;;;;;;14.95;9.60;;;;;;;13.65;100.00;101348.44;4991410;28;20529;-75
2023/09/05 01:13:00;;;;;;;11.70;9.50;;;;;;;13.62;100.00;101348.88;4981581;28;20049;-75
2023/09/05 01:15:26;;;;;;;13.95;9.82;;;;;;;13.57;100.00;101335.88;5014747;28;20107;-75
2023/09/05 01:17:54;;;;;;;12.77;9.38;;;;;;;13.54;100.00;101329.97;5034529;28;20099;-75
2023/09/05 01:20:25;;;;;;;12.70;9.30;;;;;;;13.54;100.00;101329.97;5040247;28;20511;-75
2023/09/05 01:23:09;;;;;;;13.25;9.32;;;;;;;13.52;100.00;101327.44;5041262;28;20072;-75
2023/09/05 01:25:35;;;;;;;12.80;10.02;;;;;;;13.46;100.00;101337.41;5042517;28;20573;-75
2023/09/05 01:28:04;;;;;;;12.88;9.40;;;;;;;13.40;100.00;101337.41;5035365;28;20109;-75
2023/09/05 01:30:30;;;;;;;11.95;9.57;;;;;;;13.37;100.00;101333.19;5044259;28;20481;-75
2023/09/05 01:32:56;;;;;;;11.95;9.65;;;;;;;13.35;100.00;101332.56;5037678;28;20132;-75
2023/09/05 01:35:23;;;;;;;12.48;10.02;;;;;;;13.33;100.00;101335.53;5034029;28;20485;-75
2023/09/05 01:37:49;;;;;;;16.15;11.60;;;;;;;13.37;100.00;101297.56;5034792;28;20038;-75
2023/09/05 01:40:16;;;;;;;13.32;10.65;;;;;;;13.40;100.00;101297.13;5044292;28;20069;-75
2023/09/05 01:42:42;;;;;;;12.73;9.75;;;;;;;13.43;100.00;101296.72;5037547;28;20041;-75
2023/09/05 01:45:08;;;;;;;14.15;10.30;;;;;;;13.41;100.00;101287.00;5034194;28;20038;-75
2023/09/05 01:47:36;;;;;;;15.73;10.35;;;;;;;13.44;100.00;101283.84;5033951;28;20029;-76
2023/09/05 01:50:02;;;;;;;14.48;10.68;;;;;;;13.48;100.00;101294.16;5034103;28;20037;-75
2023/09/05 01:52:28;;;;;;;15.73;10.35;;;;;;;13.50;100.00;101299.41;5041472;28;20030;-75
2023/09/05 01:54:54;;;;;;;12.90;9.98;;;;;;;13.49;100.00;101294.97;5036346;28;20115;-75
2023/09/05 01:57:20;;;;;;;14.68;9.68;;;;;;;13.48;100.00;101296.91;5033382;28;20068;-75
2023/09/05 01:59:46;;;;;;;12.05;9.85;;;;;;;13.45;100.00;101302.81;5033043;28;20029;-74
2023/09/05 02:02:12;;;;;;;11.07;9.27;;;;;;;13.46;100.00;101300.91;5032997;28;20040;-75
2023/09/05 02:04:38;;;;;;;12.15;9.27;;;;;;;13.41;100.00;101290.59;5036818;28;20120;-75
2023/09/05 02:07:08;;;;;;;11.85;8.73;;;;;;;13.40;100.00;101294.41;5033902;28;20596;-75
2023/09/05 02:09:35;;;;;;;12.60;9.00;;;;;;;13.38;100.00;101289.13;5043328;28;20088;-74
2023/09/05 02:12:01;;;;;;;11.88;9.00;;;;;;;13.29;100.00;101290.47;5019316;28;20034;-74
2023/09/05 02:14:27;;;;;;;11.73;8.88;;;;;;;13.19;100.00;101301.03;5032632;28;20037;-74
2023/09/05 02:16:53;;;;;;;12.40;9.02;;;;;;;13.13;100.00;101290.94;5040763;28;20361;-75
2023/09/05 02:19:20;;;;;;;11.38;9.35;;;;;;;13.07;100.00;101288.03;5036069;28;20112;-75
2023/09/05 02:21:48;;;;;;;14.00;10.13;;;;;;;13.12;100.00;101278.31;5036064;28;20044;-75
2023/09/05 02:24:15;;;;;;;16.45;10.63;;;;;;;13.16;100.00;101268.59;5039021;28;20045;-75
2023/09/05 02:26:41;;;;;;;14.55;11.18;;;;;;;13.19;100.00;101258.06;5039302;28;20473;-75
2023/09/05 02:29:08;;;;;;;16.42;12.38;;;;;;;13.17;100.00;101256.56;5049901;28;20025;-75
2023/09/05 02:31:35;;;;;;;18.27;13.88;;;;;;;13.29;100.00;101249.34;5034214;28;20033;-74
2023/09/05 02:34:01;;;;;;;17.17;12.85;;;;;;;13.40;100.00;101236.84;5033998;28;20042;-74
2023/09/05 02:36:30;;;;;;;18.88;12.95;;;;;;;13.48;100.00;101227.53;5031013;28;20102;-74
2023/09/05 02:38:58;;;;;;;17.42;13.35;;;;;;;13.57;100.00;101228.94;5037442;28;20448;-76
2023/09/05 02:41:24;;;;;;;17.53;12.73;;;;;;;13.54;100.00;101237.63;5033319;28;20358;-74
2023/09/05 02:43:50;;;;;;;15.57;12.05;;;;;;;13.50;100.00;101242.69;5038712;28;20048;-74
2023/09/05 02:46:16;;;;;;;15.32;11.52;;;;;;;13.47;100.00;101248.63;5019868;28;20092;-75
2023/09/05 02:48:43;;;;;;;15.38;12.50;;;;;;;13.44;100.00;101254.56;5032654;28;20132;-74
2023/09/05 02:51:11;;;;;;;17.10;11.68;;;;;;;13.41;100.00;101251.38;5031762;28;20038;-74
2023/09/05 02:53:38;;;;;;;20.50;12.18;;;;;;;13.42;100.00;101251.16;5031799;28;20033;-75
2023/09/05 02:56:05;;;;;;;16.90;13.20;;;;;;;13.49;100.00;101232.78;5031759;28;20053;-74
2023/09/05 02:58:32;;;;;;;18.67;13.27;;;;;;;13.58;100.00;101219.66;5031672;28;20065;-74
2023/09/05 03:01:03;;;;;;;15.73;12.80;;;;;;;13.71;100.00;101209.63;5032627;28;20035;-74
2023/09/05 03:03:29;;;;;;;18.73;12.77;;;;;;;13.77;100.00;101215.06;5031654;28;20041;-74
2023/09/05 03:05:55;;;;;;;15.80;11.95;;;;;;;13.75;100.00;101227.31;5031633;28;20053;-74
2023/09/05 03:08:21;;;;;;;19.83;12.02;;;;;;;13.81;100.00;101240.97;5035291;28;20042;-74
2023/09/05 03:10:52;;;;;;;15.07;12.23;;;;;;;13.88;100.00;101249.16;5031130;28;20037;-74
2023/09/05 03:13:20;;;;;;;16.20;11.85;;;;;;;13.89;100.00;101256.31;5032461;28;20340;-74
2023/09/05 03:15:51;;;;;;;21.95;11.70;;;;;;;13.87;100.00;101274.91;5031673;28;20186;-74
2023/09/05 03:18:18;;;;;;;14.15;9.65;;;;;;;13.83;100.00;101272.81;5030994;28;20037;-74
2023/09/05 03:20:46;;;;;;;14.77;11.90;;;;;;;13.79;100.00;101278.75;5046050;28;20511;-74
2023/09/05 03:23:13;;;;;;;;;;;;;;;13.83;100.00;101278.31;5033635;28;20156;-74
2023/09/05 03:25:39;;;;;;;15.80;10.48;;;;;;;13.73;100.00;101268.69;5035693;28;19924;-74
2023/09/05 03:28:10;;;;;;;15.75;10.63;;;;;;;13.70;100.00;101279.25;5035313;28;20037;-75
2023/09/05 03:30:38;;;;;;;11.55;9.93;;;;;;;13.61;100.00;101287.75;5042654;28;20045;-76
2023/09/05 03:33:05;;;;;;;14.63;10.45;;;;;;;13.57;100.00;101292.00;5039214;28;20461;-76
2023/09/05 03:35:32;;;;;;;13.23;10.45;;;;;;;13.52;100.00;101295.41;5044845;28;20471;-74
2023/09/05 03:37:59;;;;;;;13.60;10.17;;;;;;;13.52;100.00;101297.28;5032246;28;20476;-76
2023/09/05 03:40:25;;;;;;;14.10;9.85;;;;;;;13.49;100.00;101292.25;5031875;28;20788;-76
2023/09/05 03:42:51;;;;;;;14.63;10.27;;;;;;;13.50;100.00;101286.56;5031900;28;20033;-75
2023/09/05 03:45:21;;;;;;;16.27;9.98;;;;;;;13.58;100.00;101277.22;5044649;28;20029;-74
2023/09/05 03:47:47;;;;;;;15.18;9.90;;;;;;;13.63;100.00;101288.38;5034036;28;20497;-75
2023/09/05 03:50:16;;;;;;;11.65;9.48;;;;;;;13.63;100.00;101284.78;5037139;28;20064;-75
2023/09/05 03:52:43;;;;;;;11.52;8.60;;;;;;;13.63;100.00;101295.75;5030520;28;20405;-75
2023/09/05 03:55:09;;;;;;;14.18;9.38;;;;;;;13.57;100.00;101288.41;5031041;28;20037;-75
2023/09/05 03:57:35;;;;;;;11.75;8.27;;;;;;;13.59;100.00;101303.59;5031278;28;20097;-75
2023/09/05 04:00:03;;;;;;;12.65;8.55;;;;;;;13.49;100.00;101300.47;5043959;28;20033;-75
2023/09/05 04:02:39;;;;;;;12.32;8.52;;;;;;;13.38;100.00;101304.72;5042099;28;20072;-75
2023/09/05 04:05:05;;;;;;;11.15;8.32;;;;;;;13.28;100.00;101318.06;5033114;28;20032;-74
2023/09/05 04:07:33;;;;;;;14.48;8.68;;;;;;;13.19;100.00;101314.72;5050036;28;20033;-76
2023/09/05 04:09:59;;;;;;;10.60;8.40;;;;;;;13.09;100.00;101312.44;5048621;28;20128;-75
2023/09/05 04:12:26;;;;;;;13.13;9.15;;;;;;;13.06;100.00;101299.19;5047055;28;20039;-75
2023/09/05 04:14:52;;;;;;;12.05;8.80;;;;;;;13.03;100.00;101295.00;5043865;28;20032;-75
2023/09/05 04:17:18;;;;;;;13.45;9.38;;;;;;;12.98;100.00;101285.75;5040075;28;20052;-75
2023/09/05 04:19:44;;;;;;;15.63;9.63;;;;;;;12.96;100.00;101288.69;5034627;28;20477;-75
2023/09/05 04:22:10;;;;;;;12.00;9.15;;;;;;;12.96;100.00;101275.00;5036393;28;20073;-75
2023/09/05 04:24:37;;;;;;;14.25;11.23;;;;;;;13.02;100.00;101273.28;5029981;28;20065;-75
2023/09/05 04:27:03;;;;;;;13.23;11.18;;;;;;;13.08;100.00;101258.72;5063211;28;20431;-75
2023/09/05 04:29:29;;;;;;;14.50;11.52;;;;;;;13.12;100.00;101257.22;5044604;28;20041;-75
2023/09/05 04:31:56;;;;;;;15.75;10.77;;;;;;;13.16;100.00;101257.63;5047369;28;20044;-75
2023/09/05 04:34:22;;;;;;;16.27;12.52;;;;;;;13.24;100.00;101251.88;5045358;28;20038;-75
2023/09/05 04:36:48;;;;;;;16.83;12.07;;;;;;;13.31;100.00;101249.97;5035396;28;20113;-75
2023/09/05 04:39:14;;;;;;;19.98;12.65;;;;;;;13.35;100.00;101242.97;5039245;28;20612;-75
2023/09/05 04:41:41;;;;;;;15.13;12.32;;;;;;;13.35;100.00;101240.25;5031328;28;20052;-75
2023/09/05 04:44:07;;;;;;;16.52;12.52;;;;;;;13.41;100.00;101234.94;5045060;28;20041;-75
2023/09/05 04:46:38;;;;;;;18.95;13.93;;;;;;;13.48;100.00;101224.78;5032199;28;20037;-75
2023/09/05 04:49:04;;;;;;;21.15;13.55;;;;;;;13.43;100.00;101219.13;5039968;28;20030;-75
2023/09/05 04:51:30;;;;;;;16.88;13.27;;;;;;;13.47;100.00;101217.63;5044813;28;20110;-76
2023/09/05 04:53:56;;;;;;;20.65;13.98;;;;;;;13.50;100.00;101218.03;5036906;28;20512;-74
2023/09/05 04:56:23;;;;;;;18.15;14.05;;;;;;;13.59;100.00;101225.97;5031265;28;20037;-75
2023/09/05 04:58:49;;;;;;;17.17;13.20;;;;;;;13.65;100.00;101223.19;5031676;28;20037;-76
2023/09/05 05:01:17;;;;;;;18.55;13.80;;;;;;;13.70;100.00;101225.25;5039274;28;20129;-76
2023/09/05 05:03:43;;;;;;;21.75;13.85;;;;;;;13.80;100.00;101228.34;5031766;28;20048;-76
2023/09/05 05:06:09;;;;;;;17.75;13.73;;;;;;;13.88;100.00;101232.69;5036091;28;20042;-75
2023/09/05 05:08:35;;;;;;;17.75;13.75;;;;;;;13.93;100.00;101235.59;5034932;28;20044;-75
2023/09/05 05:11:05;;;;;;;18.23;14.02;;;;;;;14.03;100.00;101234.25;5031031;28;20046;-75
2023/09/05 05:13:33;;;;;;;20.85;14.30;;;;;;;14.13;100.00;101230.97;5036128;28;20034;-75
2023/09/05 05:15:59;;;;;;;18.83;13.60;;;;;;;14.22;100.00;101243.34;5030048;28;20076;-74
2023/09/05 05:18:25;;;;;;;17.23;12.43;;;;;;;14.26;100.00;101262.94;5032769;28;20084;-75
2023/09/05 05:20:52;;;;;;;19.05;12.35;;;;;;;14.29;100.00;101273.47;5029576;28;20048;-76
2023/09/05 05:23:18;;;;;;;16.13;12.20;;;;;;;14.33;100.00;101278.28;5034727;28;20068;-77
2023/09/05 05:25:44;;;;;;;17.75;12.68;;;;;;;14.39;100.00;101282.03;5045568;28;20442;-77
2023/09/05 05:28:10;;;;;;;15.60;11.82;;;;;;;14.45;100.00;101283.84;5031886;28;20038;-81
2023/09/05 05:30:37;;;;;;;14.52;11.68;;;;;;;14.53;100.00;101290.97;5031814;28;20135;-79
2023/09/05 05:33:03;;;;;;;14.43;11.98;;;;;;;14.60;100.00;101288.97;5044864;28;20045;-81
2023/09/05 05:35:29;;;;;;;17.40;12.80;;;;;;;14.69;100.00;101284.03;5037418;28;20564;-79
2023/09/05 05:37:55;;;;;;;16.17;11.77;;;;;;;14.76;100.00;101271.06;5036497;28;20037;-79
2023/09/05 05:40:21;;;;;;;15.77;11.60;;;;;;;14.88;100.00;101275.81;5035083;28;20044;-79
2023/09/05 05:42:48;;;;;;;14.20;11.52;;;;;;;14.97;100.00;101282.66;5034803;28;20124;-79
2023/09/05 05:45:14;;;;;;;16.13;12.07;;;;;;;15.07;100.00;101288.44;5040565;28;20033;-79
2023/09/05 05:47:40;;;;;;;14.95;11.10;;;;;;;15.15;100.00;101284.53;5040461;28;20037;-79
2023/09/05 05:50:09;;;;;;;12.95;10.50;;;;;;;15.30;100.00;101297.03;5033803;28;20033;-78
2023/09/05 05:52:35;;;;;;;12.32;10.18;;;;;;;15.47;100.00;101292.53;5034828;28;20041;-79
2023/09/05 05:55:01;;;;;;;16.50;11.15;;;;;;;15.60;100.00;101297.00;5035322;28;20045;-79
2023/09/05 05:57:27;;;;;;;15.05;10.90;;;;;;;15.71;100.00;101309.13;5037466;28;20041;-78
2023/09/05 05:59:54;;;;;;;14.45;10.30;;;;;;;15.87;100.00;101310.34;5034579;28;20029;-78
2023/09/05 06:02:20;;;;;;;15.00;10.02;;;;;;;16.01;100.00;101335.75;5034499;28;20056;-79
2023/09/05 06:04:46;;;;;;;15.60;10.38;;;;;;;16.20;100.00;101333.78;5038919;28;20108;-79
2023/09/05 06:07:12;;;;;;;15.57;9.38;;;;;;;16.35;100.00;101340.72;5040900;28;20485;-79
2023/09/05 06:09:38;;;;;;;14.80;9.10;;;;;;;16.49;100.00;101355.06;5033399;28;20045;-79
2023/09/05 06:12:05;;;;;;;12.77;8.00;;;;;;;16.62;100.00;101362.25;5045457;28;20131;-79
2023/09/05 06:14:31;;;;;;;9.75;7.32;;;;;;;16.75;100.00;101373.06;5041121;28;20445;-78
2023/09/05 06:16:57;;;;;;;10.48;6.72;;;;;;;16.96;100.00;101387.25;5034072;28;20044;-79
2023/09/05 06:19:23;;;;;;;11.82;7.70;;;;;;;17.10;100.00;101391.47;5034393;28;20024;-79
2023/09/05 06:21:49;;;;;;;11.57;7.57;;;;;;;17.21;100.00;101398.03;5034143;28;20466;-80
2023/09/05 06:24:18;;;;;;;10.27;7.18;;;;;;;17.39;100.00;101399.78;5033901;28;20072;-80
2023/09/05 06:26:45;;;;;;;10.50;6.57;;;;;;;17.58;100.00;101407.91;5034182;28;20116;-78
2023/09/05 06:29:11;;;;;;;12.63;7.17;;;;;;;17.72;100.00;101418.63;5040401;28;20055;-80
2023/09/05 06:31:37;;;;;;;12.38;6.40;;;;;;;17.88;100.00;101417.84;5035926;28;20034;-82
2023/09/05 06:34:03;;;;;;;11.70;6.40;;;;;;;18.02;100.00;101425.84;5037684;28;20112;-80
2023/09/05 06:36:29;;;;;;;8.43;5.90;;;;;;;18.16;100.00;101435.50;5033742;28;20129;-78
2023/09/05 06:38:55;;;;;;;8.80;6.30;;;;;;;18.33;100.00;101434.69;5038799;28;20046;-78
2023/09/05 06:41:21;;;;;;;8.45;5.97;;;;;;;18.38;100.00;101427.28;5032839;28;20037;-77
2023/09/05 06:43:47;;;;;;;8.20;4.78;;;;;;;18.54;100.00;101433.91;5035685;28;20057;-78
2023/09/05 06:46:14;;;;;;;7.05;5.15;;;;;;;18.75;100.00;101441.72;5036520;28;20029;-82
2023/09/05 06:48:40;;;;;;;8.30;4.53;;;;;;;18.96;100.00;101448.38;5040973;28;20041;-81
2023/09/05 06:51:07;;;;;;;8.10;4.40;;;;;;;19.18;100.00;101450.38;5033551;28;20350;-81
2023/09/05 06:53:33;;;;;;;9.95;4.28;;;;;;;19.33;100.00;101461.63;5039206;28;20071;-81
2023/09/05 06:55:59;;;;;;;6.47;4.28;;;;;;;19.58;100.00;101465.00;5040240;28;20079;-81
2023/09/05 06:58:26;;;;;;;9.35;4.10;;;;;;;19.73;100.00;101453.28;5033870;28;20067;-81
2023/09/05 07:00:54;;;;;;;10.70;4.00;;;;;;;19.89;100.00;101454.28;5033794;28;20029;-81
2023/09/05 07:03:25;;;;;;;7.22;3.72;;;;;;;19.97;100.00;101459.38;5033570;28;20485;-80
2023/09/05 07:05:54;;;;;;;7.57;3.55;;;;;;;20.15;100.00;101469.25;5034888;28;20181;-80
2023/09/05 07:08:20;;;;;;;6.93;3.33;;;;;;;20.34;100.00;101472.50;5033711;28;20049;-81
2023/09/05 07:10:48;;;;;;;8.65;3.10;;;;;;;20.50;100.00;101475.38;5033382;28;20059;-81
2023/09/05 07:13:16;;;;;;;5.65;3.55;;;;;;;20.61;100.00;101476.31;5034262;28;20087;-82
2023/09/05 07:15:43;;;;;;;5.82;3.20;;;;;;;20.79;100.00;101481.47;5033661;28;20072;-83
2023/09/05 07:18:10;;;;;;;4.20;2.88;;;;;;;20.90;100.00;101478.78;5032585;28;20045;-80
2023/09/05 07:20:36;;;;;;;5.40;3.03;;;;;;;21.02;100.00;101479.41;5034105;28;20041;-79
2023/09/05 07:23:03;;;;;;;8.50;3.20;;;;;;;21.28;100.00;101479.56;5033432;28;20029;-79
2023/09/05 07:25:29;;;;;;;5.38;2.72;;;;;;;21.41;100.00;101476.28;5032922;28;20397;-80
2023/09/05 07:27:55;;;;;;;4.10;2.60;;;;;;;21.42;100.00;101485.47;5039523;28;20060;-78
2023/09/05 07:30:21;;;;;;;5.50;2.63;;;;;;;21.54;100.00;101486.06;5033283;28;20045;-79
2023/09/05 07:32:47;;;;;;;4.60;2.50;;;;;;;21.77;100.00;101491.47;5042202;28;20029;-78
2023/09/05 07:35:13;;;;;;;5.93;2.38;;;;;;;21.73;100.00;101482.84;5033064;28;20128;-78
2023/09/05 07:37:41;;;;;;;5.18;2.50;;;;;;;21.98;100.00;101493.19;5033183;28;20603;-78
2023/09/05 07:40:08;;;;;;;5.05;2.45;;;;;;;22.15;100.00;101500.47;5046892;28;20040;-78
2023/09/05 07:42:34;;;;;;;6.00;2.20;;;;;;;22.26;100.00;101509.66;5035953;28;20040;-77
2023/09/05 07:45:04;;;;;;;3.58;2.20;;;;;;;22.40;100.00;101504.41;5032575;28;20282;-76
2023/09/05 07:47:30;;;;;;;3.83;2.40;;;;;;;22.38;100.00;101506.63;5032544;28;20029;-79
2023/09/05 07:49:56;;;;;;;4.15;1.98;;;;;;;22.70;100.00;101509.19;5032844;28;20093;-78
2023/09/05 07:52:22;;;;;;;3.80;1.98;;;;;;;22.86;100.00;101511.94;5032840;28;20034;-79
2023/09/05 07:54:48;;;;;;;5.60;2.08;;;;;;;22.89;100.00;101508.59;5040809;28;20052;-78
2023/09/05 07:57:17;;;;;;;4.00;2.10;;;;;;;22.93;100.00;101504.13;5031574;28;20065;-76
2023/09/05 07:59:44;;;;;;;5.75;2.22;;;;;;;23.09;100.00;101509.69;5030959;28;20030;-78
2023/09/05 08:02:10;;;;;;;5.50;2.28;;;;;;;23.26;100.00;101506.59;5044158;28;20082;-78
2023/09/05 08:04:38;;;;;;;3.75;2.08;;;;;;;23.14;100.00;101504.09;5032194;28;20037;-77
2023/09/05 08:07:06;;;;;;;5.43;1.90;;;;;;;23.27;100.00;101502.72;5032687;28;20038;-77
2023/09/05 08:09:33;;;;;;;5.45;2.13;;;;;;;23.49;100.00;101502.38;5032479;28;20106;-77
2023/09/05 08:12:01;;;;;;;4.35;2.10;;;;;;;23.63;100.00;101510.97;5036435;28;20114;-78
2023/09/05 08:14:27;;;;;;;3.83;2.17;;;;;;;23.64;100.00;101512.63;5036595;28;20040;-77
2023/09/05 08:16:53;;;;;;;4.53;1.88;;;;;;;23.83;100.00;101515.59;5040490;28;20100;-78
2023/09/05 08:19:19;;;;;;;3.42;2.00;;;;;;;23.91;100.00;101513.31;5032353;28;20037;-78
2023/09/05 08:21:45;;;;;;;3.88;2.00;;;;;;;24.07;100.00;101516.88;5014651;28;20041;-78
2023/09/05 08:24:12;;;;;;;3.90;1.70;;;;;;;24.28;100.00;101510.06;5032090;28;20041;-78
2023/09/05 08:26:39;;;;;;;4.03;1.80;;;;;;;24.13;100.00;101507.38;5031768;28;20053;-78
2023/09/05 08:29:06;;;;;;;4.32;1.85;;;;;;;24.14;100.00;101511.84;5041191;28;20124;-78
2023/09/05 08:31:32;;;;;;;5.35;2.17;;;;;;;24.22;100.00;101510.38;5032662;28;20051;-79
2023/09/05 08:33:59;;;;;;;5.68;2.22;;;;;;;24.46;100.00;101506.88;5028748;28;20060;-78
2023/09/05 08:36:25;;;;;;;8.07;2.00;;;;;;;24.64;98.18;101502.53;5030842;28;20103;-77
2023/09/05 08:38:51;;;;;;;3.47;1.73;;;;;;;25.00;99.26;101507.84;5041694;28;20401;-78
2023/09/05 08:41:17;;;;;;;4.15;1.70;;;;;;;25.08;91.76;101504.41;5032383;28;20120;-77
2023/09/05 08:43:45;;;;;;;4.82;2.03;;;;;;;25.14;86.72;101503.22;5032091;28;20485;-77
2023/09/05 08:46:13;;;;;;;3.13;1.70;;;;;;;25.17;87.53;101500.94;5032319;28;20116;-78
2023/09/05 08:48:39;;;;;;;;;;;;;;;25.32;86.96;101495.22;5032070;28;20425;-78
2023/09/05 08:51:09;;;;;;;5.60;1.73;;;;;;;25.30;82.76;101496.63;5031086;28;19917;-77
2023/09/05 08:53:41;;;;;;;4.75;1.67;;;;;;;25.37;86.20;101492.34;5035459;28;20034;-78
2023/09/05 08:56:08;;;;;;;3.85;1.70;;;;;;;25.32;81.93;101489.63;5031826;28;20046;-77
2023/09/05 08:58:35;;;;;;;3.42;1.60;;;;;;;25.61;85.23;101485.94;5032146;28;20053;-78
2023/09/05 09:01:01;;;;;;;3.90;1.92;;;;;;;25.75;81.96;101493.63;5031004;28;20045;-77
2023/09/05 09:03:30;;;;;;;5.25;1.90;;;;;;;25.83;78.66;101490.13;5032277;28;20076;-77
2023/09/05 09:05:57;;;;;;;4.80;1.67;;;;;;;25.75;77.30;101474.06;5032456;28;20122;-79
2023/09/05 09:08:23;;;;;;;5.90;1.80;;;;;;;25.95;81.11;101495.28;5032022;28;20045;-77
2023/09/05 09:11:06;;;;;;;3.97;1.65;;;;;;;26.41;79.15;101497.41;5031720;28;20038;-79
2023/09/05 09:13:33;;;;;;;2.92;1.67;;;;;;;26.72;79.39;101507.25;5035243;28;20184;-78
2023/09/05 09:16:00;;;;;;;4.22;1.70;;;;;;;26.77;72.16;101504.34;5040918;28;20049;-78
2023/09/05 09:18:26;;;;;;;3.65;1.50;;;;;;;26.78;66.99;101494.81;5046053;28;20037;-78
2023/09/05 09:20:54;;;;;;;2.25;1.45;;;;;;;26.68;68.99;101495.00;5035344;28;20044;-79
2023/09/05 09:23:24;;;;;;;;;;;;;;;27.11;69.03;101496.78;5038411;28;20037;-78
2023/09/05 09:25:51;;;;;;;3.97;1.70;;;;;;;27.27;80.05;101500.97;5044290;28;19913;-78
2023/09/05 09:28:28;;;;;;;3.97;1.58;;;;;;;26.81;68.84;101493.38;5035125;28;20069;-79
2023/09/05 09:30:59;;;;;;;5.50;1.75;;;;;;;26.92;67.15;101494.06;5035114;28;20044;-79
2023/09/05 09:33:26;;;;;;;3.42;1.85;;;;;;;26.98;65.18;101487.22;5035335;28;20083;-81
2023/09/05 09:36:04;;;;;;;4.07;1.67;;;;;;;27.09;65.54;101493.47;5035829;28;20075;-79
2023/09/05 09:38:31;;;;;;;3.67;1.63;;;;;;;27.54;67.34;101492.88;5035708;28;20582;-79
2023/09/05 09:41:00;;;;;;;2.53;1.50;;;;;;;27.45;64.47;101489.13;5035924;28;20429;-79
2023/09/05 09:43:28;;;;;;;3.80;1.80;;;;;;;27.42;63.38;101480.22;5035141;28;20374;-81
2023/09/05 09:45:54;;;;;;;3.50;1.63;;;;;;;27.53;66.22;101480.84;5043436;28;20408;-78
2023/09/05 09:48:25;;;;;;;4.50;1.70;;;;;;;27.66;63.93;101476.38;5050984;28;20045;-79
2023/09/05 09:50:53;;;;;;;4.32;1.50;;;;;;;27.42;59.36;101473.75;5047773;28;20481;-79
2023/09/05 09:53:26;;;;;;;2.85;1.50;;;;;;;27.48;62.65;101475.34;5038338;28;20125;-78
2023/09/05 09:55:53;;;;;;;5.22;1.50;;;;;;;27.82;60.40;101464.81;5036327;28;20049;-79
2023/09/05 09:58:22;;;;;;;2.10;1.42;;;;;;;27.84;57.37;101470.94;5019104;28;20042;-79
2023/09/05 10:00:50;;;;;;;4.28;1.70;;;;;;;28.03;56.12;101478.34;5034709;28;20432;-79
2023/09/05 10:03:16;;;;;;;3.70;1.63;;;;;;;28.85;55.17;101473.53;5034854;28;20049;-79
2023/09/05 10:05:45;;;;;;;3.15;1.10;;;;;;;29.37;55.90;101479.72;5035323;28;20069;-79
2023/09/05 10:08:11;;;;;;;4.95;1.52;;;;;;;30.36;47.89;101455.88;5034458;28;20046;-78
2023/09/05 10:10:39;;;;;;;6.13;1.40;;;;;;;31.34;43.88;101457.25;5034398;28;20041;-79
2023/09/05 10:13:10;;;;;;;2.78;1.30;;;;;;;31.79;41.19;101457.81;5040202;28;20485;-80
2023/09/05 10:15:38;;;;;;;6.15;1.60;;;;;;;32.40;39.27;101453.69;5056327;28;20092;-80
2023/09/05 10:18:09;;;;;;;3.40;1.40;;;;;;;33.09;37.17;101454.03;5040828;28;20121;-83
2023/09/05 10:20:37;;;;;;;5.10;1.30;;;;;;;33.12;37.07;101452.53;5040346;28;20492;-79
2023/09/05 10:23:06;;;;;;;4.72;1.50;;;;;;;33.84;35.54;101446.34;5040540;28;20049;-79
2023/09/05 10:25:38;;;;;;;2.50;1.23;;;;;;;34.92;34.13;101450.53;5033790;28;20053;-79
2023/09/05 10:28:05;;;;;;;2.45;1.40;;;;;;;35.61;33.08;101451.38;5034806;28;20029;-79
2023/09/05 10:30:45;;;;;;;2.95;1.48;;;;;;;34.89;33.87;101447.63;5033942;28;20045;-79
2023/09/05 10:33:13;;;;;;;3.35;1.40;;;;;;;34.27;33.63;101438.28;5034648;28;20481;-80
2023/09/05 10:35:44;;;;;;;3.05;1.30;;;;;;;34.62;34.04;101436.00;5034245;28;20033;-79
2023/09/05 10:38:12;;;;;;;2.80;1.10;;;;;;;35.41;32.68;101429.47;5034303;28;20112;-79
2023/09/05 10:40:40;;;;;;;3.00;1.45;;;;;;;36.00;31.40;101431.56;5033996;28;20163;-79
2023/09/05 10:43:07;;;;;;;;;;;;;;;35.99;30.16;101410.06;5047474;28;20037;-79
2023/09/05 10:45:37;;;;;;;1.80;1.02;;;;;;;35.73;33.21;101433.41;5039735;28;19917;-80
2023/09/05 10:48:11;;;;;;;2.65;1.20;;;;;;;35.16;32.12;101414.72;5034024;28;20040;-79
2023/09/05 10:51:03;;;;;;;2.85;1.27;;;;;;;35.34;32.70;101417.97;5034427;28;20116;-81
2023/09/05 10:53:29;;;;;;;3.53;1.40;;;;;;;35.88;31.43;101412.66;5034081;28;20512;-80
2023/09/05 10:55:56;;;;;;;2.85;1.20;;;;;;;36.74;29.77;101404.19;5033778;28;20030;-80
2023/09/05 10:58:45;;;;;;;2.13;1.10;;;;;;;35.96;29.51;101380.41;5033515;28;20029;-81
2023/09/05 11:01:43;;;;;;;3.17;1.00;;;;;;;36.10;30.68;101407.47;5033471;28;20112;-78
2023/09/05 11:04:23;;;;;;;3.67;1.20;;;;;;;36.32;29.54;101390.81;5036276;28;20136;-78
2023/09/05 11:07:01;;;;;;;2.70;1.10;;;;;;;37.38;27.86;101389.31;5033303;28;20056;-78
2023/09/05 11:09:27;;;;;;;3.30;1.23;;;;;;;36.94;29.57;101392.72;5042763;28;20052;-78
2023/09/05 11:11:53;;;;;;;1.77;1.20;;;;;;;37.31;29.59;101403.44;5041587;28;20125;-79
2023/09/05 11:14:36;;;;;;;2.80;1.33;;;;;;;38.04;28.23;101399.56;5033419;28;20037;-81
2023/09/05 11:17:02;;;;;;;2.55;1.10;;;;;;;36.98;28.62;101383.03;5036596;28;20045;-78